sensor_id;sensor_type;location;lat;lon;timestamp;temperature;humidity
19622;DHT22;9958;33.196;-97.114;2022-09-23T00:01:25;33.10;45.70
19622;DHT22;9958;33.196;-97.114;2022-09-23T00:03:54;33.00;46.50
19622;DHT22;9958;33.196;-97.114;2022-09-23T00:06:23;32.90;47.10
19622;DHT22;9958;33.196;-97.114;2022-09-23T00:08:51;32.80;47.70
19622;DHT22;9958;33.196;-97.114;2022-09-23T00:11:23;32.70;47.90
19622;DHT22;9958;33.196;-97.114;2022-09-23T00:13:53;32.60;47.50
19622;DHT22;9958;33.196;-97.114;2022-09-23T00:16:26;32.40;47.10
19622;DHT22;9958;33.196;-97.114;2022-09-23T00:18:54;32.30;47.20
19622;DHT22;9958;33.196;-97.114;2022-09-23T00:21:23;32.20;47.70
19622;DHT22;9958;33.196;-97.114;2022-09-23T00:23:52;32.10;47.80
19622;DHT22;9958;33.196;-97.114;2022-09-23T00:26:21;32.00;47.90
19622;DHT22;9958;33.196;-97.114;2022-09-23T00:28:49;31.90;48.30
19622;DHT22;9958;33.196;-97.114;2022-09-23T00:31:20;31.80;49.00
19622;DHT22;9958;33.196;-97.114;2022-09-23T00:33:53;31.70;49.00
19622;DHT22;9958;33.196;-97.114;2022-09-23T00:36:22;31.60;49.30
19622;DHT22;9958;33.196;-97.114;2022-09-23T00:38:51;31.50;49.70
19622;DHT22;9958;33.196;-97.114;2022-09-23T00:41:20;31.40;49.70
19622;DHT22;9958;33.196;-97.114;2022-09-23T00:43:51;31.20;50.10
19622;DHT22;9958;33.196;-97.114;2022-09-23T00:46:21;31.20;50.40
19622;DHT22;9958;33.196;-97.114;2022-09-23T00:48:54;31.00;50.60
19622;DHT22;9958;33.196;-97.114;2022-09-23T00:51:28;30.90;51.00
19622;DHT22;9958;33.196;-97.114;2022-09-23T00:54:00;30.80;51.40
19622;DHT22;9958;33.196;-97.114;2022-09-23T00:56:30;30.70;51.70
19622;DHT22;9958;33.196;-97.114;2022-09-23T00:59:00;30.60;51.90
19622;DHT22;9958;33.196;-97.114;2022-09-23T01:01:28;30.50;52.20
19622;DHT22;9958;33.196;-97.114;2022-09-23T01:03:58;30.40;52.40
19622;DHT22;9958;33.196;-97.114;2022-09-23T01:06:27;30.30;52.90
19622;DHT22;9958;33.196;-97.114;2022-09-23T01:08:55;30.20;53.50
19622;DHT22;9958;33.196;-97.114;2022-09-23T01:11:44;30.10;53.80
19622;DHT22;9958;33.196;-97.114;2022-09-23T01:14:33;30.00;54.30
19622;DHT22;9958;33.196;-97.114;2022-09-23T01:17:07;29.90;54.80
19622;DHT22;9958;33.196;-97.114;2022-09-23T01:20:07;29.80;55.20
19622;DHT22;9958;33.196;-97.114;2022-09-23T01:22:45;29.70;55.40
19622;DHT22;9958;33.196;-97.114;2022-09-23T01:25:39;29.60;55.60
19622;DHT22;9958;33.196;-97.114;2022-09-23T01:28:25;29.60;56.10
19622;DHT22;9958;33.196;-97.114;2022-09-23T01:31:01;29.50;56.50
19622;DHT22;9958;33.196;-97.114;2022-09-23T01:33:38;29.30;56.90
19622;DHT22;9958;33.196;-97.114;2022-09-23T01:36:13;29.30;57.40
19622;DHT22;9958;33.196;-97.114;2022-09-23T01:38:54;29.20;57.40
19622;DHT22;9958;33.196;-97.114;2022-09-23T01:41:49;29.10;57.30
19622;DHT22;9958;33.196;-97.114;2022-09-23T01:44:21;29.00;57.60
19622;DHT22;9958;33.196;-97.114;2022-09-23T01:46:55;28.90;57.40
19622;DHT22;9958;33.196;-97.114;2022-09-23T01:49:28;28.80;57.50
19622;DHT22;9958;33.196;-97.114;2022-09-23T01:52:02;28.80;57.80
19622;DHT22;9958;33.196;-97.114;2022-09-23T01:54:36;28.70;57.80
19622;DHT22;9958;33.196;-97.114;2022-09-23T01:57:10;28.60;57.70
19622;DHT22;9958;33.196;-97.114;2022-09-23T01:59:44;28.60;57.80
19622;DHT22;9958;33.196;-97.114;2022-09-23T02:02:19;28.50;57.90
19622;DHT22;9958;33.196;-97.114;2022-09-23T02:04:53;28.50;58.10
19622;DHT22;9958;33.196;-97.114;2022-09-23T02:07:24;28.40;58.20
19622;DHT22;9958;33.196;-97.114;2022-09-23T02:09:56;28.40;58.40
19622;DHT22;9958;33.196;-97.114;2022-09-23T02:12:29;28.30;58.40
19622;DHT22;9958;33.196;-97.114;2022-09-23T02:15:03;28.30;58.90
19622;DHT22;9958;33.196;-97.114;2022-09-23T02:17:39;28.20;59.00
19622;DHT22;9958;33.196;-97.114;2022-09-23T02:20:12;28.20;59.10
19622;DHT22;9958;33.196;-97.114;2022-09-23T02:22:45;28.10;59.00
19622;DHT22;9958;33.196;-97.114;2022-09-23T02:25:18;28.10;59.60
19622;DHT22;9958;33.196;-97.114;2022-09-23T02:27:54;28.00;59.70
19622;DHT22;9958;33.196;-97.114;2022-09-23T02:30:27;28.00;59.90
19622;DHT22;9958;33.196;-97.114;2022-09-23T02:33:01;28.00;60.00
19622;DHT22;9958;33.196;-97.114;2022-09-23T02:35:35;27.90;60.10
19622;DHT22;9958;33.196;-97.114;2022-09-23T02:38:14;27.90;60.00
19622;DHT22;9958;33.196;-97.114;2022-09-23T02:40:49;27.90;60.40
19622;DHT22;9958;33.196;-97.114;2022-09-23T02:43:22;27.80;60.60
19622;DHT22;9958;33.196;-97.114;2022-09-23T02:45:53;27.80;60.70
19622;DHT22;9958;33.196;-97.114;2022-09-23T02:48:26;27.80;61.00
19622;DHT22;9958;33.196;-97.114;2022-09-23T02:50:57;27.80;61.30
19622;DHT22;9958;33.196;-97.114;2022-09-23T02:53:28;27.70;61.50
19622;DHT22;9958;33.196;-97.114;2022-09-23T02:55:59;27.70;61.70
19622;DHT22;9958;33.196;-97.114;2022-09-23T02:58:28;27.70;62.00
19622;DHT22;9958;33.196;-97.114;2022-09-23T03:01:02;27.70;62.20
19622;DHT22;9958;33.196;-97.114;2022-09-23T03:03:41;27.70;62.50
19622;DHT22;9958;33.196;-97.114;2022-09-23T03:06:21;27.70;62.70
19622;DHT22;9958;33.196;-97.114;2022-09-23T03:08:58;27.70;62.90
19622;DHT22;9958;33.196;-97.114;2022-09-23T03:11:29;27.70;63.10
19622;DHT22;9958;33.196;-97.114;2022-09-23T03:14:09;27.60;63.50
19622;DHT22;9958;33.196;-97.114;2022-09-23T03:16:46;27.60;63.70
19622;DHT22;9958;33.196;-97.114;2022-09-23T03:19:24;27.60;63.90
19622;DHT22;9958;33.196;-97.114;2022-09-23T03:21:58;27.50;64.00
19622;DHT22;9958;33.196;-97.114;2022-09-23T03:24:30;27.50;64.50
19622;DHT22;9958;33.196;-97.114;2022-09-23T03:27:03;27.40;65.00
19622;DHT22;9958;33.196;-97.114;2022-09-23T03:29:32;27.40;65.00
19622;DHT22;9958;33.196;-97.114;2022-09-23T03:32:03;27.30;65.10
19622;DHT22;9958;33.196;-97.114;2022-09-23T03:34:35;27.30;65.60
19622;DHT22;9958;33.196;-97.114;2022-09-23T03:37:10;27.20;65.60
19622;DHT22;9958;33.196;-97.114;2022-09-23T03:39:43;27.20;65.80
19622;DHT22;9958;33.196;-97.114;2022-09-23T03:42:16;27.20;66.30
19622;DHT22;9958;33.196;-97.114;2022-09-23T03:44:46;27.10;66.90
19622;DHT22;9958;33.196;-97.114;2022-09-23T03:47:15;27.10;67.30
19622;DHT22;9958;33.196;-97.114;2022-09-23T03:49:46;27.00;67.70
19622;DHT22;9958;33.196;-97.114;2022-09-23T03:52:15;27.00;68.20
19622;DHT22;9958;33.196;-97.114;2022-09-23T03:54:44;26.90;68.10
19622;DHT22;9958;33.196;-97.114;2022-09-23T03:57:13;26.90;68.40
19622;DHT22;9958;33.196;-97.114;2022-09-23T03:59:41;26.80;68.80
19622;DHT22;9958;33.196;-97.114;2022-09-23T04:02:10;26.80;69.10
19622;DHT22;9958;33.196;-97.114;2022-09-23T04:04:38;26.80;69.30
19622;DHT22;9958;33.196;-97.114;2022-09-23T04:07:09;26.80;69.60
19622;DHT22;9958;33.196;-97.114;2022-09-23T04:09:38;26.70;69.40
19622;DHT22;9958;33.196;-97.114;2022-09-23T04:12:06;26.70;69.50
19622;DHT22;9958;33.196;-97.114;2022-09-23T04:14:35;26.60;70.80
19622;DHT22;9958;33.196;-97.114;2022-09-23T04:17:03;26.60;70.10
19622;DHT22;9958;33.196;-97.114;2022-09-23T04:19:31;26.50;69.90
19622;DHT22;9958;33.196;-97.114;2022-09-23T04:22:00;26.50;69.90
19622;DHT22;9958;33.196;-97.114;2022-09-23T04:24:30;26.50;70.20
19622;DHT22;9958;33.196;-97.114;2022-09-23T04:26:58;26.40;70.10
19622;DHT22;9958;33.196;-97.114;2022-09-23T04:29:26;26.40;70.50
19622;DHT22;9958;33.196;-97.114;2022-09-23T04:31:55;26.40;70.60
19622;DHT22;9958;33.196;-97.114;2022-09-23T04:34:23;26.40;70.30
19622;DHT22;9958;33.196;-97.114;2022-09-23T04:36:51;26.30;70.00
19622;DHT22;9958;33.196;-97.114;2022-09-23T04:39:19;26.30;70.00
19622;DHT22;9958;33.196;-97.114;2022-09-23T04:41:49;26.30;70.50
19622;DHT22;9958;33.196;-97.114;2022-09-23T04:44:17;26.30;71.00
19622;DHT22;9958;33.196;-97.114;2022-09-23T04:46:46;26.20;71.30
19622;DHT22;9958;33.196;-97.114;2022-09-23T04:49:15;26.20;71.70
19622;DHT22;9958;33.196;-97.114;2022-09-23T04:51:43;26.10;72.10
19622;DHT22;9958;33.196;-97.114;2022-09-23T04:54:12;26.10;72.40
19622;DHT22;9958;33.196;-97.114;2022-09-23T04:56:41;26.00;73.50
19622;DHT22;9958;33.196;-97.114;2022-09-23T04:59:11;26.00;73.90
19622;DHT22;9958;33.196;-97.114;2022-09-23T05:01:39;26.00;74.40
19622;DHT22;9958;33.196;-97.114;2022-09-23T05:04:09;25.90;74.50
19622;DHT22;9958;33.196;-97.114;2022-09-23T05:06:39;25.90;74.50
19622;DHT22;9958;33.196;-97.114;2022-09-23T05:09:13;25.80;74.40
19622;DHT22;9958;33.196;-97.114;2022-09-23T05:11:43;25.70;75.00
19622;DHT22;9958;33.196;-97.114;2022-09-23T05:14:13;25.70;75.70
19622;DHT22;9958;33.196;-97.114;2022-09-23T05:16:41;25.70;75.30
19622;DHT22;9958;33.196;-97.114;2022-09-23T05:19:09;25.60;75.70
19622;DHT22;9958;33.196;-97.114;2022-09-23T05:21:38;25.60;76.10
19622;DHT22;9958;33.196;-97.114;2022-09-23T05:24:07;25.50;76.60
19622;DHT22;9958;33.196;-97.114;2022-09-23T05:26:36;25.40;77.00
19622;DHT22;9958;33.196;-97.114;2022-09-23T05:29:04;25.40;77.30
19622;DHT22;9958;33.196;-97.114;2022-09-23T05:31:34;25.40;77.40
19622;DHT22;9958;33.196;-97.114;2022-09-23T05:34:04;25.30;78.00
19622;DHT22;9958;33.196;-97.114;2022-09-23T05:36:34;25.30;78.00
19622;DHT22;9958;33.196;-97.114;2022-09-23T05:39:03;25.20;78.10
19622;DHT22;9958;33.196;-97.114;2022-09-23T05:41:32;25.20;77.80
19622;DHT22;9958;33.196;-97.114;2022-09-23T05:44:00;25.20;77.00
19622;DHT22;9958;33.196;-97.114;2022-09-23T05:46:30;25.10;77.40
19622;DHT22;9958;33.196;-97.114;2022-09-23T05:49:00;25.10;78.80
19622;DHT22;9958;33.196;-97.114;2022-09-23T05:51:30;25.10;79.20
19622;DHT22;9958;33.196;-97.114;2022-09-23T05:53:59;25.10;79.80
19622;DHT22;9958;33.196;-97.114;2022-09-23T05:56:28;25.10;80.10
19622;DHT22;9958;33.196;-97.114;2022-09-23T05:58:58;25.00;80.40
19622;DHT22;9958;33.196;-97.114;2022-09-23T06:01:28;25.00;80.30
19622;DHT22;9958;33.196;-97.114;2022-09-23T06:03:59;25.00;80.80
19622;DHT22;9958;33.196;-97.114;2022-09-23T06:06:29;24.90;81.00
19622;DHT22;9958;33.196;-97.114;2022-09-23T06:08:58;24.80;81.50
19622;DHT22;9958;33.196;-97.114;2022-09-23T06:11:29;24.80;82.00
19622;DHT22;9958;33.196;-97.114;2022-09-23T06:13:58;24.80;82.60
19622;DHT22;9958;33.196;-97.114;2022-09-23T06:16:28;24.80;83.20
19622;DHT22;9958;33.196;-97.114;2022-09-23T06:18:59;24.80;83.70
19622;DHT22;9958;33.196;-97.114;2022-09-23T06:21:30;24.80;84.10
19622;DHT22;9958;33.196;-97.114;2022-09-23T06:23:59;24.80;84.50
19622;DHT22;9958;33.196;-97.114;2022-09-23T06:26:28;24.80;85.20
19622;DHT22;9958;33.196;-97.114;2022-09-23T06:28:59;24.80;85.60
19622;DHT22;9958;33.196;-97.114;2022-09-23T06:31:28;24.80;86.30
19622;DHT22;9958;33.196;-97.114;2022-09-23T06:33:58;24.80;87.70
19622;DHT22;9958;33.196;-97.114;2022-09-23T06:36:27;24.80;88.60
19622;DHT22;9958;33.196;-97.114;2022-09-23T06:38:55;24.80;89.40
19622;DHT22;9958;33.196;-97.114;2022-09-23T06:41:23;24.80;90.10
19622;DHT22;9958;33.196;-97.114;2022-09-23T06:43:51;24.80;90.40
19622;DHT22;9958;33.196;-97.114;2022-09-23T06:46:20;24.80;91.10
19622;DHT22;9958;33.196;-97.114;2022-09-23T06:48:48;24.80;91.50
19622;DHT22;9958;33.196;-97.114;2022-09-23T06:51:18;24.80;92.60
19622;DHT22;9958;33.196;-97.114;2022-09-23T06:53:47;24.80;92.40
19622;DHT22;9958;33.196;-97.114;2022-09-23T06:56:16;24.80;92.60
19622;DHT22;9958;33.196;-97.114;2022-09-23T06:58:45;24.80;92.90
19622;DHT22;9958;33.196;-97.114;2022-09-23T07:01:15;24.80;93.20
19622;DHT22;9958;33.196;-97.114;2022-09-23T07:03:45;24.80;93.50
19622;DHT22;9958;33.196;-97.114;2022-09-23T07:06:14;24.70;93.50
19622;DHT22;9958;33.196;-97.114;2022-09-23T07:08:44;24.80;93.80
19622;DHT22;9958;33.196;-97.114;2022-09-23T07:11:14;24.80;93.90
19622;DHT22;9958;33.196;-97.114;2022-09-23T07:13:44;24.80;93.90
19622;DHT22;9958;33.196;-97.114;2022-09-23T07:16:12;24.80;94.30
19622;DHT22;9958;33.196;-97.114;2022-09-23T07:18:41;24.80;94.60
19622;DHT22;9958;33.196;-97.114;2022-09-23T07:21:12;24.80;94.80
19622;DHT22;9958;33.196;-97.114;2022-09-23T07:23:41;24.70;94.90
19622;DHT22;9958;33.196;-97.114;2022-09-23T07:26:11;24.70;95.00
19622;DHT22;9958;33.196;-97.114;2022-09-23T07:28:39;24.70;95.30
19622;DHT22;9958;33.196;-97.114;2022-09-23T07:31:09;24.70;95.40
19622;DHT22;9958;33.196;-97.114;2022-09-23T07:33:39;24.60;95.50
19622;DHT22;9958;33.196;-97.114;2022-09-23T07:36:13;24.60;95.90
19622;DHT22;9958;33.196;-97.114;2022-09-23T07:38:42;24.60;96.20
19622;DHT22;9958;33.196;-97.114;2022-09-23T07:41:13;24.60;96.30
19622;DHT22;9958;33.196;-97.114;2022-09-23T07:43:42;24.50;96.40
19622;DHT22;9958;33.196;-97.114;2022-09-23T07:46:12;24.50;96.50
19622;DHT22;9958;33.196;-97.114;2022-09-23T07:48:42;24.50;96.80
19622;DHT22;9958;33.196;-97.114;2022-09-23T07:51:13;24.50;97.10
19622;DHT22;9958;33.196;-97.114;2022-09-23T07:53:46;24.40;97.20
19622;DHT22;9958;33.196;-97.114;2022-09-23T07:56:17;24.40;97.40
19622;DHT22;9958;33.196;-97.114;2022-09-23T07:58:46;24.40;97.70
19622;DHT22;9958;33.196;-97.114;2022-09-23T08:01:25;24.30;97.60
19622;DHT22;9958;33.196;-97.114;2022-09-23T08:03:55;24.30;97.60
19622;DHT22;9958;33.196;-97.114;2022-09-23T08:06:23;24.30;98.10
19622;DHT22;9958;33.196;-97.114;2022-09-23T08:08:51;24.20;98.40
19622;DHT22;9958;33.196;-97.114;2022-09-23T08:11:21;24.20;98.40
19622;DHT22;9958;33.196;-97.114;2022-09-23T08:13:50;24.20;98.60
19622;DHT22;9958;33.196;-97.114;2022-09-23T08:16:19;24.10;98.70
19622;DHT22;9958;33.196;-97.114;2022-09-23T08:18:47;24.10;98.80
19622;DHT22;9958;33.196;-97.114;2022-09-23T08:21:18;24.10;99.40
19622;DHT22;9958;33.196;-97.114;2022-09-23T08:23:47;24.00;99.60
19622;DHT22;9958;33.196;-97.114;2022-09-23T08:26:16;24.00;99.80
19622;DHT22;9958;33.196;-97.114;2022-09-23T08:28:46;23.90;99.90
19622;DHT22;9958;33.196;-97.114;2022-09-23T08:31:14;23.90;99.90
19622;DHT22;9958;33.196;-97.114;2022-09-23T08:33:42;23.90;99.90
19622;DHT22;9958;33.196;-97.114;2022-09-23T08:36:11;23.90;99.90
19622;DHT22;9958;33.196;-97.114;2022-09-23T08:38:39;23.80;99.90
19622;DHT22;9958;33.196;-97.114;2022-09-23T08:41:14;23.80;99.90
19622;DHT22;9958;33.196;-97.114;2022-09-23T08:43:48;23.70;99.90
19622;DHT22;9958;33.196;-97.114;2022-09-23T08:46:21;23.70;99.90
19622;DHT22;9958;33.196;-97.114;2022-09-23T08:48:51;23.70;99.90
19622;DHT22;9958;33.196;-97.114;2022-09-23T08:51:24;23.70;99.90
19622;DHT22;9958;33.196;-97.114;2022-09-23T08:53:54;23.60;99.90
19622;DHT22;9958;33.196;-97.114;2022-09-23T08:56:23;23.60;99.90
19622;DHT22;9958;33.196;-97.114;2022-09-23T08:59:02;23.60;99.90
19622;DHT22;9958;33.196;-97.114;2022-09-23T09:01:39;23.50;99.90
19622;DHT22;9958;33.196;-97.114;2022-09-23T09:04:17;23.50;99.90
19622;DHT22;9958;33.196;-97.114;2022-09-23T09:06:51;23.50;99.90
19622;DHT22;9958;33.196;-97.114;2022-09-23T09:09:27;23.50;99.90
19622;DHT22;9958;33.196;-97.114;2022-09-23T09:12:02;23.40;99.90
19622;DHT22;9958;33.196;-97.114;2022-09-23T09:14:36;23.40;99.90
19622;DHT22;9958;33.196;-97.114;2022-09-23T09:17:12;23.30;99.90
19622;DHT22;9958;33.196;-97.114;2022-09-23T09:19:52;23.30;99.90
19622;DHT22;9958;33.196;-97.114;2022-09-23T09:22:28;23.30;99.90
19622;DHT22;9958;33.196;-97.114;2022-09-23T09:25:09;23.20;99.90
19622;DHT22;9958;33.196;-97.114;2022-09-23T09:27:40;23.30;99.90
19622;DHT22;9958;33.196;-97.114;2022-09-23T09:30:13;23.20;99.90
19622;DHT22;9958;33.196;-97.114;2022-09-23T09:32:44;23.20;99.90
19622;DHT22;9958;33.196;-97.114;2022-09-23T09:35:24;23.20;99.90
19622;DHT22;9958;33.196;-97.114;2022-09-23T09:37:54;23.10;99.90
19622;DHT22;9958;33.196;-97.114;2022-09-23T09:40:22;23.10;99.90
19622;DHT22;9958;33.196;-97.114;2022-09-23T09:42:50;23.00;99.90
19622;DHT22;9958;33.196;-97.114;2022-09-23T09:45:28;23.00;99.90
19622;DHT22;9958;33.196;-97.114;2022-09-23T09:48:07;23.00;99.90
19622;DHT22;9958;33.196;-97.114;2022-09-23T09:50:42;23.00;99.90
19622;DHT22;9958;33.196;-97.114;2022-09-23T09:53:19;23.00;99.90
19622;DHT22;9958;33.196;-97.114;2022-09-23T09:56:00;22.90;99.90
19622;DHT22;9958;33.196;-97.114;2022-09-23T09:58:34;22.90;99.90
19622;DHT22;9958;33.196;-97.114;2022-09-23T10:01:20;22.90;99.90
19622;DHT22;9958;33.196;-97.114;2022-09-23T10:03:50;22.90;99.90
19622;DHT22;9958;33.196;-97.114;2022-09-23T10:06:21;22.80;99.90
19622;DHT22;9958;33.196;-97.114;2022-09-23T10:09:12;22.80;99.90
19622;DHT22;9958;33.196;-97.114;2022-09-23T10:11:44;22.80;99.90
19622;DHT22;9958;33.196;-97.114;2022-09-23T10:14:28;22.70;99.90
19622;DHT22;9958;33.196;-97.114;2022-09-23T10:17:04;22.70;99.90
19622;DHT22;9958;33.196;-97.114;2022-09-23T10:19:34;22.60;99.90
19622;DHT22;9958;33.196;-97.114;2022-09-23T10:22:08;22.70;99.90
19622;DHT22;9958;33.196;-97.114;2022-09-23T10:24:47;22.60;99.90
19622;DHT22;9958;33.196;-97.114;2022-09-23T10:27:25;22.60;99.90
19622;DHT22;9958;33.196;-97.114;2022-09-23T10:29:59;22.50;99.90
19622;DHT22;9958;33.196;-97.114;2022-09-23T10:32:33;22.50;99.90
19622;DHT22;9958;33.196;-97.114;2022-09-23T10:35:12;22.50;99.90
19622;DHT22;9958;33.196;-97.114;2022-09-23T10:37:43;22.40;99.90
19622;DHT22;9958;33.196;-97.114;2022-09-23T10:40:16;22.40;99.90
19622;DHT22;9958;33.196;-97.114;2022-09-23T10:43:21;22.40;99.90
19622;DHT22;9958;33.196;-97.114;2022-09-23T10:46:10;22.30;99.90
19622;DHT22;9958;33.196;-97.114;2022-09-23T10:52:01;22.30;99.90
19622;DHT22;9958;33.196;-97.114;2022-09-23T10:54:42;22.20;99.90
19622;DHT22;9958;33.196;-97.114;2022-09-23T10:57:24;22.20;99.90
19622;DHT22;9958;33.196;-97.114;2022-09-23T11:00:14;22.20;99.90
19622;DHT22;9958;33.196;-97.114;2022-09-23T11:06:03;22.10;99.90
19622;DHT22;9958;33.196;-97.114;2022-09-23T11:08:44;22.10;99.90
19622;DHT22;9958;33.196;-97.114;2022-09-23T11:11:24;22.10;99.90
19622;DHT22;9958;33.196;-97.114;2022-09-23T11:14:13;22.00;99.90
19622;DHT22;9958;33.196;-97.114;2022-09-23T11:17:03;22.00;99.90
19622;DHT22;9958;33.196;-97.114;2022-09-23T11:20:03;21.90;99.90
19622;DHT22;9958;33.196;-97.114;2022-09-23T11:22:48;21.90;99.90
19622;DHT22;9958;33.196;-97.114;2022-09-23T11:25:29;21.90;99.90
19622;DHT22;9958;33.196;-97.114;2022-09-23T11:28:25;21.90;99.90
19622;DHT22;9958;33.196;-97.114;2022-09-23T11:31:02;21.90;99.90
19622;DHT22;9958;33.196;-97.114;2022-09-23T11:33:45;21.90;99.90
19622;DHT22;9958;33.196;-97.114;2022-09-23T11:36:22;21.90;99.90
19622;DHT22;9958;33.196;-97.114;2022-09-23T11:38:55;21.90;99.90
19622;DHT22;9958;33.196;-97.114;2022-09-23T11:41:27;22.00;99.90
19622;DHT22;9958;33.196;-97.114;2022-09-23T11:44:00;22.00;99.90
19622;DHT22;9958;33.196;-97.114;2022-09-23T11:46:33;22.00;99.90
19622;DHT22;9958;33.196;-97.114;2022-09-23T11:49:08;22.00;99.90
19622;DHT22;9958;33.196;-97.114;2022-09-23T11:51:47;22.20;99.90
19622;DHT22;9958;33.196;-97.114;2022-09-23T11:54:22;22.20;99.90
19622;DHT22;9958;33.196;-97.114;2022-09-23T11:56:53;22.30;99.90
19622;DHT22;9958;33.196;-97.114;2022-09-23T11:59:30;22.40;99.90
19622;DHT22;9958;33.196;-97.114;2022-09-23T12:02:03;22.40;99.90
19622;DHT22;9958;33.196;-97.114;2022-09-23T12:04:37;22.50;99.90
19622;DHT22;9958;33.196;-97.114;2022-09-23T12:07:11;22.50;99.90
19622;DHT22;9958;33.196;-97.114;2022-09-23T12:09:51;22.60;99.90
19622;DHT22;9958;33.196;-97.114;2022-09-23T12:12:27;22.70;99.90
19622;DHT22;9958;33.196;-97.114;2022-09-23T12:15:00;22.70;99.90
19622;DHT22;9958;33.196;-97.114;2022-09-23T12:18:03;22.80;99.90
19622;DHT22;9958;33.196;-97.114;2022-09-23T12:20:52;22.80;99.90
19622;DHT22;9958;33.196;-97.114;2022-09-23T12:23:58;22.90;99.90
19622;DHT22;9958;33.196;-97.114;2022-09-23T12:26:34;22.90;99.90
19622;DHT22;9958;33.196;-97.114;2022-09-23T12:29:05;22.90;99.90
19622;DHT22;9958;33.196;-97.114;2022-09-23T12:31:36;23.00;99.90
19622;DHT22;9958;33.196;-97.114;2022-09-23T12:34:19;23.00;99.90
19622;DHT22;9958;33.196;-97.114;2022-09-23T12:36:49;23.00;99.90
19622;DHT22;9958;33.196;-97.114;2022-09-23T12:39:23;23.10;99.90
19622;DHT22;9958;33.196;-97.114;2022-09-23T12:42:00;23.20;99.90
19622;DHT22;9958;33.196;-97.114;2022-09-23T12:44:33;23.20;99.90
19622;DHT22;9958;33.196;-97.114;2022-09-23T12:47:40;23.30;99.90
19622;DHT22;9958;33.196;-97.114;2022-09-23T12:50:46;23.30;99.90
19622;DHT22;9958;33.196;-97.114;2022-09-23T12:56:20;23.50;99.90
19622;DHT22;9958;33.196;-97.114;2022-09-23T12:59:16;23.60;99.90
19622;DHT22;9958;33.196;-97.114;2022-09-23T13:01:47;23.60;99.90
19622;DHT22;9958;33.196;-97.114;2022-09-23T13:04:31;23.70;99.90
19622;DHT22;9958;33.196;-97.114;2022-09-23T13:07:17;23.80;99.90
19622;DHT22;9958;33.196;-97.114;2022-09-23T13:09:51;23.90;99.90
19622;DHT22;9958;33.196;-97.114;2022-09-23T13:12:23;24.00;99.90
19622;DHT22;9958;33.196;-97.114;2022-09-23T13:14:56;24.10;99.90
19622;DHT22;9958;33.196;-97.114;2022-09-23T13:17:31;24.20;99.90
19622;DHT22;9958;33.196;-97.114;2022-09-23T13:20:02;24.30;99.90
19622;DHT22;9958;33.196;-97.114;2022-09-23T13:23:03;24.40;99.90
19622;DHT22;9958;33.196;-97.114;2022-09-23T13:25:38;24.60;99.90
19622;DHT22;9958;33.196;-97.114;2022-09-23T13:28:25;24.70;99.90
19622;DHT22;9958;33.196;-97.114;2022-09-23T13:30:55;24.80;99.90
19622;DHT22;9958;33.196;-97.114;2022-09-23T13:33:29;24.90;99.90
19622;DHT22;9958;33.196;-97.114;2022-09-23T13:36:00;25.00;99.90
19622;DHT22;9958;33.196;-97.114;2022-09-23T13:38:30;25.20;99.90
19622;DHT22;9958;33.196;-97.114;2022-09-23T13:41:03;25.30;99.90
19622;DHT22;9958;33.196;-97.114;2022-09-23T13:43:35;25.30;99.90
19622;DHT22;9958;33.196;-97.114;2022-09-23T13:46:09;25.40;99.90
19622;DHT22;9958;33.196;-97.114;2022-09-23T13:48:39;25.50;99.90
19622;DHT22;9958;33.196;-97.114;2022-09-23T13:51:19;25.60;99.90
19622;DHT22;9958;33.196;-97.114;2022-09-23T13:53:51;25.60;99.90
19622;DHT22;9958;33.196;-97.114;2022-09-23T13:56:27;25.70;99.90
19622;DHT22;9958;33.196;-97.114;2022-09-23T13:59:19;25.80;99.90
19622;DHT22;9958;33.196;-97.114;2022-09-23T14:02:01;25.80;99.90
19622;DHT22;9958;33.196;-97.114;2022-09-23T14:04:29;25.90;99.90
19622;DHT22;9958;33.196;-97.114;2022-09-23T14:06:58;25.90;99.90
19622;DHT22;9958;33.196;-97.114;2022-09-23T14:09:28;25.90;99.90
19622;DHT22;9958;33.196;-97.114;2022-09-23T14:11:58;26.00;99.90
19622;DHT22;9958;33.196;-97.114;2022-09-23T14:14:28;26.10;99.90
19622;DHT22;9958;33.196;-97.114;2022-09-23T14:16:58;26.20;99.90
19622;DHT22;9958;33.196;-97.114;2022-09-23T14:19:28;26.30;99.90
19622;DHT22;9958;33.196;-97.114;2022-09-23T14:21:56;26.30;99.90
19622;DHT22;9958;33.196;-97.114;2022-09-23T14:24:30;26.40;99.90
19622;DHT22;9958;33.196;-97.114;2022-09-23T14:27:00;26.40;99.90
19622;DHT22;9958;33.196;-97.114;2022-09-23T14:29:32;26.50;99.90
19622;DHT22;9958;33.196;-97.114;2022-09-23T14:32:04;26.60;99.90
19622;DHT22;9958;33.196;-97.114;2022-09-23T14:34:44;26.70;99.90
19622;DHT22;9958;33.196;-97.114;2022-09-23T14:37:31;26.80;99.90
19622;DHT22;9958;33.196;-97.114;2022-09-23T14:40:20;26.90;99.90
19622;DHT22;9958;33.196;-97.114;2022-09-23T14:42:50;27.10;99.90
19622;DHT22;9958;33.196;-97.114;2022-09-23T14:45:20;27.20;99.90
19622;DHT22;9958;33.196;-97.114;2022-09-23T14:47:59;27.30;99.90
19622;DHT22;9958;33.196;-97.114;2022-09-23T14:50:30;27.40;99.90
19622;DHT22;9958;33.196;-97.114;2022-09-23T14:53:32;27.50;99.90
19622;DHT22;9958;33.196;-97.114;2022-09-23T14:56:12;27.70;99.90
19622;DHT22;9958;33.196;-97.114;2022-09-23T14:58:44;27.80;99.90
19622;DHT22;9958;33.196;-97.114;2022-09-23T15:01:40;28.00;99.90
19622;DHT22;9958;33.196;-97.114;2022-09-23T15:04:15;28.00;99.90
19622;DHT22;9958;33.196;-97.114;2022-09-23T15:06:50;28.10;99.90
19622;DHT22;9958;33.196;-97.114;2022-09-23T15:09:22;28.30;99.90
19622;DHT22;9958;33.196;-97.114;2022-09-23T15:11:55;28.40;99.90
19622;DHT22;9958;33.196;-97.114;2022-09-23T15:14:30;28.50;99.90
19622;DHT22;9958;33.196;-97.114;2022-09-23T15:17:03;28.60;99.90
19622;DHT22;9958;33.196;-97.114;2022-09-23T15:19:34;28.70;99.90
19622;DHT22;9958;33.196;-97.114;2022-09-23T15:22:07;28.80;99.90
19622;DHT22;9958;33.196;-97.114;2022-09-23T15:24:40;29.00;99.90
19622;DHT22;9958;33.196;-97.114;2022-09-23T15:27:27;29.00;99.90
19622;DHT22;9958;33.196;-97.114;2022-09-23T15:30:12;29.10;99.90
19622;DHT22;9958;33.196;-97.114;2022-09-23T15:32:42;29.20;99.90
19622;DHT22;9958;33.196;-97.114;2022-09-23T15:35:17;29.30;99.90
19622;DHT22;9958;33.196;-97.114;2022-09-23T15:37:48;29.30;99.90
19622;DHT22;9958;33.196;-97.114;2022-09-23T15:40:22;29.40;99.90
19622;DHT22;9958;33.196;-97.114;2022-09-23T15:42:53;29.50;99.90
19622;DHT22;9958;33.196;-97.114;2022-09-23T15:45:29;29.50;99.90
19622;DHT22;9958;33.196;-97.114;2022-09-23T15:48:00;29.60;99.90
19622;DHT22;9958;33.196;-97.114;2022-09-23T15:50:35;29.70;99.90
19622;DHT22;9958;33.196;-97.114;2022-09-23T15:53:04;29.80;99.90
19622;DHT22;9958;33.196;-97.114;2022-09-23T15:55:32;30.00;99.90
19622;DHT22;9958;33.196;-97.114;2022-09-23T15:58:01;30.00;99.90
19622;DHT22;9958;33.196;-97.114;2022-09-23T16:00:29;30.20;99.90
19622;DHT22;9958;33.196;-97.114;2022-09-23T16:02:57;30.30;99.90
19622;DHT22;9958;33.196;-97.114;2022-09-23T16:05:28;30.40;99.90